Adell, Wisconsin
Current Conditions -  °F | °C
As of 7:53 PM on Saturday 25 Oct 2014 (Local Time) from KSBM Reporting Station
Clear Clear  
Wind Chill: 13°   Ceiling: Unl
Heat Index: 13°   Visibility: 10mi
Dew Point: -2°   Wind: 12mph
Humidity: 37%   Direction: 280°W
Pressure: 29.9"   Gusts: NA
Location:  43.62°N, 87.95°W
Report Text: KSBM 260053Z AUTO 28010KT 10SM CLR 13/M02 A2990 RMK AO2 SLP127 T01281017
Loading
Personal Weather Stations






























Interactive Weather Map
Tropical Storm Tracking
New forecast layout! Learn more

10-Day Weather Forecast

Advertisements
Track Severe Weather on mobile